sensor_id;sensor_type;location;lat;lon;timestamp;temperature;humidity
14471;DHT22;7321;50.802;4.336;2022-12-07T00:02:29;7.60;99.90
14471;DHT22;7321;50.802;4.336;2022-12-07T00:05:15;7.60;99.90
14471;DHT22;7321;50.802;4.336;2022-12-07T00:07:44;7.50;99.90
14471;DHT22;7321;50.802;4.336;2022-12-07T00:10:09;7.50;99.90
14471;DHT22;7321;50.802;4.336;2022-12-07T00:12:43;7.40;99.90
14471;DHT22;7321;50.802;4.336;2022-12-07T00:15:23;7.30;99.90
14471;DHT22;7321;50.802;4.336;2022-12-07T00:17:49;7.20;99.90
14471;DHT22;7321;50.802;4.336;2022-12-07T00:20:14;7.10;99.90
14471;DHT22;7321;50.802;4.336;2022-12-07T00:22:40;7.10;99.90
14471;DHT22;7321;50.802;4.336;2022-12-07T00:25:06;7.10;99.90
14471;DHT22;7321;50.802;4.336;2022-12-07T00:27:32;7.00;99.90
14471;DHT22;7321;50.802;4.336;2022-12-07T00:29:58;7.10;99.90
14471;DHT22;7321;50.802;4.336;2022-12-07T00:32:23;7.20;99.90
14471;DHT22;7321;50.802;4.336;2022-12-07T00:34:49;7.10;99.90
14471;DHT22;7321;50.802;4.336;2022-12-07T00:37:18;7.20;99.90
14471;DHT22;7321;50.802;4.336;2022-12-07T00:39:44;7.10;99.90
14471;DHT22;7321;50.802;4.336;2022-12-07T00:42:10;7.10;99.90
14471;DHT22;7321;50.802;4.336;2022-12-07T00:44:36;7.10;99.90
14471;DHT22;7321;50.802;4.336;2022-12-07T00:47:02;7.10;99.90
14471;DHT22;7321;50.802;4.336;2022-12-07T00:49:28;7.00;99.90
14471;DHT22;7321;50.802;4.336;2022-12-07T00:51:53;7.00;99.90
14471;DHT22;7321;50.802;4.336;2022-12-07T00:54:19;6.90;99.90
14471;DHT22;7321;50.802;4.336;2022-12-07T00:56:45;6.90;99.90
14471;DHT22;7321;50.802;4.336;2022-12-07T00:59:13;7.00;99.90
14471;DHT22;7321;50.802;4.336;2022-12-07T01:01:42;6.90;99.90
14471;DHT22;7321;50.802;4.336;2022-12-07T01:04:08;7.00;99.90
14471;DHT22;7321;50.802;4.336;2022-12-07T01:06:34;7.00;99.90
14471;DHT22;7321;50.802;4.336;2022-12-07T01:09:00;7.00;99.90
14471;DHT22;7321;50.802;4.336;2022-12-07T01:11:28;7.00;99.90
14471;DHT22;7321;50.802;4.336;2022-12-07T01:13:56;7.10;99.90
14471;DHT22;7321;50.802;4.336;2022-12-07T01:16:24;7.10;99.90
14471;DHT22;7321;50.802;4.336;2022-12-07T01:18:51;7.10;99.90
14471;DHT22;7321;50.802;4.336;2022-12-07T01:21:21;7.10;99.90
14471;DHT22;7321;50.802;4.336;2022-12-07T01:23:47;7.00;99.90
14471;DHT22;7321;50.802;4.336;2022-12-07T01:26:17;7.10;99.90
14471;DHT22;7321;50.802;4.336;2022-12-07T01:28:43;7.10;99.90
14471;DHT22;7321;50.802;4.336;2022-12-07T01:31:14;7.10;99.90
14471;DHT22;7321;50.802;4.336;2022-12-07T01:33:45;7.00;99.90
14471;DHT22;7321;50.802;4.336;2022-12-07T01:36:18;7.10;99.90
14471;DHT22;7321;50.802;4.336;2022-12-07T01:38:45;7.10;99.90
14471;DHT22;7321;50.802;4.336;2022-12-07T01:41:12;7.10;99.90
14471;DHT22;7321;50.802;4.336;2022-12-07T01:44:20;7.10;99.90
14471;DHT22;7321;50.802;4.336;2022-12-07T01:49:29;7.00;99.90
14471;DHT22;7321;50.802;4.336;2022-12-07T01:52:14;7.00;99.90
14471;DHT22;7321;50.802;4.336;2022-12-07T01:54:42;7.10;99.90
14471;DHT22;7321;50.802;4.336;2022-12-07T01:57:10;7.00;99.90
14471;DHT22;7321;50.802;4.336;2022-12-07T01:59:36;7.00;99.90
14471;DHT22;7321;50.802;4.336;2022-12-07T02:02:07;6.90;99.90
14471;DHT22;7321;50.802;4.336;2022-12-07T02:04:35;6.90;99.90
14471;DHT22;7321;50.802;4.336;2022-12-07T02:07:03;6.90;99.90
14471;DHT22;7321;50.802;4.336;2022-12-07T02:09:30;6.90;99.90
14471;DHT22;7321;50.802;4.336;2022-12-07T02:11:55;6.90;99.90
14471;DHT22;7321;50.802;4.336;2022-12-07T02:14:21;7.00;99.90
14471;DHT22;7321;50.802;4.336;2022-12-07T02:28:11;7.20;99.90
14471;DHT22;7321;50.802;4.336;2022-12-07T02:30:43;7.20;99.90
14471;DHT22;7321;50.802;4.336;2022-12-07T02:33:22;7.30;99.90
14471;DHT22;7321;50.802;4.336;2022-12-07T02:36:14;7.30;99.90
14471;DHT22;7321;50.802;4.336;2022-12-07T02:38:56;7.30;99.90
14471;DHT22;7321;50.802;4.336;2022-12-07T02:41:29;7.20;99.90
14471;DHT22;7321;50.802;4.336;2022-12-07T02:44:03;7.00;99.90
14471;DHT22;7321;50.802;4.336;2022-12-07T02:46:36;7.10;99.90
14471;DHT22;7321;50.802;4.336;2022-12-07T02:49:03;7.10;99.90
14471;DHT22;7321;50.802;4.336;2022-12-07T02:51:31;7.10;99.90
14471;DHT22;7321;50.802;4.336;2022-12-07T02:53:58;7.20;99.90
14471;DHT22;7321;50.802;4.336;2022-12-07T02:56:49;7.20;99.90
14471;DHT22;7321;50.802;4.336;2022-12-07T03:02:10;7.20;99.90
14471;DHT22;7321;50.802;4.336;2022-12-07T03:12:50;7.00;99.90
14471;DHT22;7321;50.802;4.336;2022-12-07T03:15:25;6.80;99.90
14471;DHT22;7321;50.802;4.336;2022-12-07T03:17:55;6.80;99.90
14471;DHT22;7321;50.802;4.336;2022-12-07T03:20:23;6.80;99.90
14471;DHT22;7321;50.802;4.336;2022-12-07T03:22:51;6.70;99.90
14471;DHT22;7321;50.802;4.336;2022-12-07T03:25:18;6.70;99.90
14471;DHT22;7321;50.802;4.336;2022-12-07T03:30:14;6.70;99.90
14471;DHT22;7321;50.802;4.336;2022-12-07T03:33:01;6.70;99.90
14471;DHT22;7321;50.802;4.336;2022-12-07T03:35:33;6.70;99.90
14471;DHT22;7321;50.802;4.336;2022-12-07T03:38:15;6.80;99.90
14471;DHT22;7321;50.802;4.336;2022-12-07T03:40:48;6.70;99.90
14471;DHT22;7321;50.802;4.336;2022-12-07T03:43:17;6.70;99.90
14471;DHT22;7321;50.802;4.336;2022-12-07T03:45:48;6.70;99.90
14471;DHT22;7321;50.802;4.336;2022-12-07T03:48:42;6.70;99.90
14471;DHT22;7321;50.802;4.336;2022-12-07T03:51:22;6.80;99.90
14471;DHT22;7321;50.802;4.336;2022-12-07T03:54:28;6.80;99.90
14471;DHT22;7321;50.802;4.336;2022-12-07T03:56:47;6.90;99.90
14471;DHT22;7321;50.802;4.336;2022-12-07T03:59:14;6.90;99.90
14471;DHT22;7321;50.802;4.336;2022-12-07T04:01:43;6.90;99.90
14471;DHT22;7321;50.802;4.336;2022-12-07T04:04:09;6.90;99.90
14471;DHT22;7321;50.802;4.336;2022-12-07T04:06:35;6.90;99.90
14471;DHT22;7321;50.802;4.336;2022-12-07T04:09:00;6.80;99.90
14471;DHT22;7321;50.802;4.336;2022-12-07T04:11:26;6.70;99.90
14471;DHT22;7321;50.802;4.336;2022-12-07T04:13:52;6.60;99.90
14471;DHT22;7321;50.802;4.336;2022-12-07T04:16:36;6.60;99.90
14471;DHT22;7321;50.802;4.336;2022-12-07T04:19:02;6.60;99.90
14471;DHT22;7321;50.802;4.336;2022-12-07T04:21:28;6.60;99.90
14471;DHT22;7321;50.802;4.336;2022-12-07T04:23:54;6.60;99.90
14471;DHT22;7321;50.802;4.336;2022-12-07T04:26:19;6.50;99.90
14471;DHT22;7321;50.802;4.336;2022-12-07T04:28:45;6.40;99.90
14471;DHT22;7321;50.802;4.336;2022-12-07T04:31:11;6.30;99.90
14471;DHT22;7321;50.802;4.336;2022-12-07T04:33:37;6.30;99.90
14471;DHT22;7321;50.802;4.336;2022-12-07T04:36:03;6.40;99.90
14471;DHT22;7321;50.802;4.336;2022-12-07T04:38:28;6.30;99.90
14471;DHT22;7321;50.802;4.336;2022-12-07T04:40:54;6.40;99.90
14471;DHT22;7321;50.802;4.336;2022-12-07T04:43:20;6.30;99.90
14471;DHT22;7321;50.802;4.336;2022-12-07T04:45:47;6.30;99.90
14471;DHT22;7321;50.802;4.336;2022-12-07T04:48:13;6.40;99.90
14471;DHT22;7321;50.802;4.336;2022-12-07T04:50:39;6.40;99.90
14471;DHT22;7321;50.802;4.336;2022-12-07T04:53:04;6.50;99.90
14471;DHT22;7321;50.802;4.336;2022-12-07T04:55:30;6.50;99.90
14471;DHT22;7321;50.802;4.336;2022-12-07T04:57:56;6.40;99.90
14471;DHT22;7321;50.802;4.336;2022-12-07T05:00:22;6.50;99.90
14471;DHT22;7321;50.802;4.336;2022-12-07T05:02:48;6.50;99.90
14471;DHT22;7321;50.802;4.336;2022-12-07T05:05:13;6.50;99.90
14471;DHT22;7321;50.802;4.336;2022-12-07T05:07:39;6.60;99.90
14471;DHT22;7321;50.802;4.336;2022-12-07T05:10:05;6.70;99.90
14471;DHT22;7321;50.802;4.336;2022-12-07T05:12:32;6.70;99.90
14471;DHT22;7321;50.802;4.336;2022-12-07T05:14:57;6.70;99.90
14471;DHT22;7321;50.802;4.336;2022-12-07T05:17:23;6.60;99.90
14471;DHT22;7321;50.802;4.336;2022-12-07T05:19:49;6.50;99.90
14471;DHT22;7321;50.802;4.336;2022-12-07T05:22:15;6.50;99.90
14471;DHT22;7321;50.802;4.336;2022-12-07T05:24:44;6.60;99.90
14471;DHT22;7321;50.802;4.336;2022-12-07T05:27:09;6.50;99.90
14471;DHT22;7321;50.802;4.336;2022-12-07T05:29:35;6.60;99.90
14471;DHT22;7321;50.802;4.336;2022-12-07T05:32:01;6.60;99.90
14471;DHT22;7321;50.802;4.336;2022-12-07T05:34:27;6.60;99.90
14471;DHT22;7321;50.802;4.336;2022-12-07T05:36:52;6.50;99.90
14471;DHT22;7321;50.802;4.336;2022-12-07T05:39:18;6.50;99.90
14471;DHT22;7321;50.802;4.336;2022-12-07T05:41:44;6.40;99.90
14471;DHT22;7321;50.802;4.336;2022-12-07T05:44:28;6.50;99.90
14471;DHT22;7321;50.802;4.336;2022-12-07T05:46:54;6.60;99.90
14471;DHT22;7321;50.802;4.336;2022-12-07T05:49:20;6.60;99.90
14471;DHT22;7321;50.802;4.336;2022-12-07T05:51:46;6.60;99.90
14471;DHT22;7321;50.802;4.336;2022-12-07T05:54:11;6.60;99.90
14471;DHT22;7321;50.802;4.336;2022-12-07T05:56:37;6.50;99.90
14471;DHT22;7321;50.802;4.336;2022-12-07T05:59:03;6.60;99.90
14471;DHT22;7321;50.802;4.336;2022-12-07T06:01:52;6.50;99.90
14471;DHT22;7321;50.802;4.336;2022-12-07T06:04:18;6.50;99.90
14471;DHT22;7321;50.802;4.336;2022-12-07T06:06:44;6.50;99.90
14471;DHT22;7321;50.802;4.336;2022-12-07T06:09:10;6.60;99.90
14471;DHT22;7321;50.802;4.336;2022-12-07T06:11:38;6.60;99.90
14471;DHT22;7321;50.802;4.336;2022-12-07T06:14:23;6.70;99.90
14471;DHT22;7321;50.802;4.336;2022-12-07T06:16:49;6.70;99.90
14471;DHT22;7321;50.802;4.336;2022-12-07T06:19:15;6.60;99.90
14471;DHT22;7321;50.802;4.336;2022-12-07T06:21:41;6.50;99.90
14471;DHT22;7321;50.802;4.336;2022-12-07T06:24:08;6.50;99.90
14471;DHT22;7321;50.802;4.336;2022-12-07T06:26:34;6.50;99.90
14471;DHT22;7321;50.802;4.336;2022-12-07T06:29:00;6.40;99.90
14471;DHT22;7321;50.802;4.336;2022-12-07T06:31:26;6.40;99.90
14471;DHT22;7321;50.802;4.336;2022-12-07T06:34:04;6.60;99.90
14471;DHT22;7321;50.802;4.336;2022-12-07T06:36:30;6.60;99.90
14471;DHT22;7321;50.802;4.336;2022-12-07T06:38:56;6.50;99.90
14471;DHT22;7321;50.802;4.336;2022-12-07T06:41:23;6.30;99.90
14471;DHT22;7321;50.802;4.336;2022-12-07T06:43:49;6.20;99.90
14471;DHT22;7321;50.802;4.336;2022-12-07T06:46:15;6.40;99.90
14471;DHT22;7321;50.802;4.336;2022-12-07T06:48:42;6.40;99.90
14471;DHT22;7321;50.802;4.336;2022-12-07T06:51:08;6.50;99.90
14471;DHT22;7321;50.802;4.336;2022-12-07T06:53:35;6.50;99.90
14471;DHT22;7321;50.802;4.336;2022-12-07T06:56:00;6.50;99.90
14471;DHT22;7321;50.802;4.336;2022-12-07T06:58:26;6.60;99.90
14471;DHT22;7321;50.802;4.336;2022-12-07T07:00:52;6.70;99.90
14471;DHT22;7321;50.802;4.336;2022-12-07T07:03:18;6.70;99.90
14471;DHT22;7321;50.802;4.336;2022-12-07T07:05:44;6.70;99.90
14471;DHT22;7321;50.802;4.336;2022-12-07T07:08:10;6.70;99.90
14471;DHT22;7321;50.802;4.336;2022-12-07T07:10:37;6.70;99.90
14471;DHT22;7321;50.802;4.336;2022-12-07T07:13:03;6.70;99.90
14471;DHT22;7321;50.802;4.336;2022-12-07T07:15:30;6.70;99.90
14471;DHT22;7321;50.802;4.336;2022-12-07T07:17:56;6.80;99.90
14471;DHT22;7321;50.802;4.336;2022-12-07T07:20:22;6.80;99.90
14471;DHT22;7321;50.802;4.336;2022-12-07T07:22:48;6.70;99.90
14471;DHT22;7321;50.802;4.336;2022-12-07T07:25:14;6.80;99.90
14471;DHT22;7321;50.802;4.336;2022-12-07T07:27:40;6.90;99.90
14471;DHT22;7321;50.802;4.336;2022-12-07T07:30:06;6.80;99.90
14471;DHT22;7321;50.802;4.336;2022-12-07T07:32:33;6.80;99.90
14471;DHT22;7321;50.802;4.336;2022-12-07T07:35:01;6.80;99.90
14471;DHT22;7321;50.802;4.336;2022-12-07T07:37:26;6.80;99.90
14471;DHT22;7321;50.802;4.336;2022-12-07T07:39:52;6.90;99.90
14471;DHT22;7321;50.802;4.336;2022-12-07T07:42:18;7.00;99.90
14471;DHT22;7321;50.802;4.336;2022-12-07T07:44:43;7.00;99.90
14471;DHT22;7321;50.802;4.336;2022-12-07T07:47:09;7.00;99.90
14471;DHT22;7321;50.802;4.336;2022-12-07T07:49:35;7.00;99.90
14471;DHT22;7321;50.802;4.336;2022-12-07T07:52:01;7.00;99.90
14471;DHT22;7321;50.802;4.336;2022-12-07T07:54:26;7.00;99.90
14471;DHT22;7321;50.802;4.336;2022-12-07T07:56:52;6.90;99.90
14471;DHT22;7321;50.802;4.336;2022-12-07T07:59:18;7.00;99.90
14471;DHT22;7321;50.802;4.336;2022-12-07T08:01:44;7.10;99.90
14471;DHT22;7321;50.802;4.336;2022-12-07T08:04:10;7.10;99.90
14471;DHT22;7321;50.802;4.336;2022-12-07T08:06:36;7.10;99.90
14471;DHT22;7321;50.802;4.336;2022-12-07T08:09:02;7.10;99.90
14471;DHT22;7321;50.802;4.336;2022-12-07T08:11:28;7.10;99.90
14471;DHT22;7321;50.802;4.336;2022-12-07T08:13:54;6.90;99.90
14471;DHT22;7321;50.802;4.336;2022-12-07T08:16:20;6.90;99.90
14471;DHT22;7321;50.802;4.336;2022-12-07T08:18:46;6.90;99.90
14471;DHT22;7321;50.802;4.336;2022-12-07T08:21:14;6.90;99.90
14471;DHT22;7321;50.802;4.336;2022-12-07T08:23:40;6.90;99.90
14471;DHT22;7321;50.802;4.336;2022-12-07T08:26:09;7.00;99.90
14471;DHT22;7321;50.802;4.336;2022-12-07T08:28:35;6.90;99.90
14471;DHT22;7321;50.802;4.336;2022-12-07T08:31:07;7.00;99.90
14471;DHT22;7321;50.802;4.336;2022-12-07T08:33:33;7.00;99.90
14471;DHT22;7321;50.802;4.336;2022-12-07T08:36:05;7.00;99.90
14471;DHT22;7321;50.802;4.336;2022-12-07T08:38:31;7.10;99.90
14471;DHT22;7321;50.802;4.336;2022-12-07T08:40:58;7.10;99.90
14471;DHT22;7321;50.802;4.336;2022-12-07T08:43:24;7.10;99.90
14471;DHT22;7321;50.802;4.336;2022-12-07T08:46:20;7.10;99.90
14471;DHT22;7321;50.802;4.336;2022-12-07T08:49:16;7.10;99.90
14471;DHT22;7321;50.802;4.336;2022-12-07T08:51:43;7.30;99.90
14471;DHT22;7321;50.802;4.336;2022-12-07T08:54:11;7.40;99.90
14471;DHT22;7321;50.802;4.336;2022-12-07T08:56:38;7.60;99.90
14471;DHT22;7321;50.802;4.336;2022-12-07T08:59:05;7.70;99.90
14471;DHT22;7321;50.802;4.336;2022-12-07T09:01:32;7.80;99.90
14471;DHT22;7321;50.802;4.336;2022-12-07T09:03:58;7.90;99.90
14471;DHT22;7321;50.802;4.336;2022-12-07T09:06:24;8.00;99.90
14471;DHT22;7321;50.802;4.336;2022-12-07T09:08:53;8.00;99.90
14471;DHT22;7321;50.802;4.336;2022-12-07T09:11:19;8.10;99.90
14471;DHT22;7321;50.802;4.336;2022-12-07T09:13:45;8.10;99.90
14471;DHT22;7321;50.802;4.336;2022-12-07T09:16:11;8.10;99.90
14471;DHT22;7321;50.802;4.336;2022-12-07T09:18:38;8.00;99.90
14471;DHT22;7321;50.802;4.336;2022-12-07T09:21:04;8.10;99.90
14471;DHT22;7321;50.802;4.336;2022-12-07T09:23:30;8.20;99.90
14471;DHT22;7321;50.802;4.336;2022-12-07T09:26:00;8.30;99.90
14471;DHT22;7321;50.802;4.336;2022-12-07T09:28:26;8.10;99.90
14471;DHT22;7321;50.802;4.336;2022-12-07T09:30:52;8.30;99.90
14471;DHT22;7321;50.802;4.336;2022-12-07T09:33:18;8.30;99.90
14471;DHT22;7321;50.802;4.336;2022-12-07T09:35:48;8.30;99.90
14471;DHT22;7321;50.802;4.336;2022-12-07T09:38:14;8.30;99.90
14471;DHT22;7321;50.802;4.336;2022-12-07T09:40:40;8.30;99.90
14471;DHT22;7321;50.802;4.336;2022-12-07T09:43:13;8.30;99.90
14471;DHT22;7321;50.802;4.336;2022-12-07T09:45:40;8.30;99.90
14471;DHT22;7321;50.802;4.336;2022-12-07T09:48:22;8.50;99.90
14471;DHT22;7321;50.802;4.336;2022-12-07T09:50:52;8.50;99.90
14471;DHT22;7321;50.802;4.336;2022-12-07T09:53:36;8.50;99.90
14471;DHT22;7321;50.802;4.336;2022-12-07T09:56:03;8.50;99.90
14471;DHT22;7321;50.802;4.336;2022-12-07T09:58:30;8.50;99.90
14471;DHT22;7321;50.802;4.336;2022-12-07T10:01:00;8.60;99.90
14471;DHT22;7321;50.802;4.336;2022-12-07T10:03:29;8.60;99.90
14471;DHT22;7321;50.802;4.336;2022-12-07T10:05:55;8.70;99.90
14471;DHT22;7321;50.802;4.336;2022-12-07T10:08:22;8.70;99.90
14471;DHT22;7321;50.802;4.336;2022-12-07T10:10:53;8.70;99.90
14471;DHT22;7321;50.802;4.336;2022-12-07T10:13:34;8.80;99.90
14471;DHT22;7321;50.802;4.336;2022-12-07T10:16:03;8.70;99.90
14471;DHT22;7321;50.802;4.336;2022-12-07T10:18:40;8.60;99.90
14471;DHT22;7321;50.802;4.336;2022-12-07T10:21:19;8.60;99.90
14471;DHT22;7321;50.802;4.336;2022-12-07T10:26:36;8.80;99.90
14471;DHT22;7321;50.802;4.336;2022-12-07T10:32:00;8.90;99.90
14471;DHT22;7321;50.802;4.336;2022-12-07T10:34:29;8.90;99.90
14471;DHT22;7321;50.802;4.336;2022-12-07T10:37:19;8.80;99.90
14471;DHT22;7321;50.802;4.336;2022-12-07T10:39:52;8.80;99.90
14471;DHT22;7321;50.802;4.336;2022-12-07T10:42:25;8.90;99.90
14471;DHT22;7321;50.802;4.336;2022-12-07T10:53:44;9.30;99.90
14471;DHT22;7321;50.802;4.336;2022-12-07T11:15:12;9.40;99.90
14471;DHT22;7321;50.802;4.336;2022-12-07T11:17:45;9.50;99.90
14471;DHT22;7321;50.802;4.336;2022-12-07T11:23:29;9.60;99.90
14471;DHT22;7321;50.802;4.336;2022-12-07T11:31:50;9.80;99.90
14471;DHT22;7321;50.802;4.336;2022-12-07T11:34:46;9.70;99.90
14471;DHT22;7321;50.802;4.336;2022-12-07T11:37:24;9.60;99.90
14471;DHT22;7321;50.802;4.336;2022-12-07T11:39:54;9.40;99.90
14471;DHT22;7321;50.802;4.336;2022-12-07T11:45:26;9.10;99.90
14471;DHT22;7321;50.802;4.336;2022-12-07T11:48:11;9.10;99.90
14471;DHT22;7321;50.802;4.336;2022-12-07T11:51:00;9.00;99.90
14471;DHT22;7321;50.802;4.336;2022-12-07T11:53:36;9.00;99.90
14471;DHT22;7321;50.802;4.336;2022-12-07T11:56:12;9.00;99.90
14471;DHT22;7321;50.802;4.336;2022-12-07T11:58:49;8.90;99.90
14471;DHT22;7321;50.802;4.336;2022-12-07T12:01:55;9.00;99.90
14471;DHT22;7321;50.802;4.336;2022-12-07T12:04:47;9.20;99.90
14471;DHT22;7321;50.802;4.336;2022-12-07T12:07:20;9.10;99.90
14471;DHT22;7321;50.802;4.336;2022-12-07T12:10:13;9.20;99.90
14471;DHT22;7321;50.802;4.336;2022-12-07T12:13:10;9.40;99.90
14471;DHT22;7321;50.802;4.336;2022-12-07T12:18:42;9.70;99.90
14471;DHT22;7321;50.802;4.336;2022-12-07T12:21:14;9.60;99.90
14471;DHT22;7321;50.802;4.336;2022-12-07T12:26:15;9.60;99.90
14471;DHT22;7321;50.802;4.336;2022-12-07T12:28:51;9.70;99.90
14471;DHT22;7321;50.802;4.336;2022-12-07T12:33:57;9.80;99.90
14471;DHT22;7321;50.802;4.336;2022-12-07T12:36:47;9.70;99.90
14471;DHT22;7321;50.802;4.336;2022-12-07T12:39:17;9.40;99.90
14471;DHT22;7321;50.802;4.336;2022-12-07T12:47:38;9.10;99.90
14471;DHT22;7321;50.802;4.336;2022-12-07T12:55:46;9.00;99.90
14471;DHT22;7321;50.802;4.336;2022-12-07T12:58:27;8.80;99.90
14471;DHT22;7321;50.802;4.336;2022-12-07T13:01:37;8.90;99.90
14471;DHT22;7321;50.802;4.336;2022-12-07T13:07:04;8.90;99.90
14471;DHT22;7321;50.802;4.336;2022-12-07T13:09:33;9.10;99.90
14471;DHT22;7321;50.802;4.336;2022-12-07T13:12:13;9.10;99.90
14471;DHT22;7321;50.802;4.336;2022-12-07T13:21:38;9.00;99.90
14471;DHT22;7321;50.802;4.336;2022-12-07T13:29:17;8.80;99.90
14471;DHT22;7321;50.802;4.336;2022-12-07T13:32:02;8.90;99.90
14471;DHT22;7321;50.802;4.336;2022-12-07T13:34:35;8.90;99.90
14471;DHT22;7321;50.802;4.336;2022-12-07T13:39:58;9.00;99.90
14471;DHT22;7321;50.802;4.336;2022-12-07T13:42:33;9.10;99.90
14471;DHT22;7321;50.802;4.336;2022-12-07T13:45:38;9.30;99.90
14471;DHT22;7321;50.802;4.336;2022-12-07T13:48:35;9.40;99.90
14471;DHT22;7321;50.802;4.336;2022-12-07T13:51:04;9.20;99.90
14471;DHT22;7321;50.802;4.336;2022-12-07T13:53:33;9.30;99.90
14471;DHT22;7321;50.802;4.336;2022-12-07T13:56:15;9.20;99.90
14471;DHT22;7321;50.802;4.336;2022-12-07T13:58:49;9.20;99.90
14471;DHT22;7321;50.802;4.336;2022-12-07T14:01:21;9.30;99.90
14471;DHT22;7321;50.802;4.336;2022-12-07T14:03:55;9.40;99.90
14471;DHT22;7321;50.802;4.336;2022-12-07T14:06:26;9.40;99.90
14471;DHT22;7321;50.802;4.336;2022-12-07T14:09:18;9.30;99.90
14471;DHT22;7321;50.802;4.336;2022-12-07T14:11:46;9.10;99.90
14471;DHT22;7321;50.802;4.336;2022-12-07T14:14:33;8.90;99.90
14471;DHT22;7321;50.802;4.336;2022-12-07T14:17:17;9.00;99.90
14471;DHT22;7321;50.802;4.336;2022-12-07T14:19:46;9.10;99.90
14471;DHT22;7321;50.802;4.336;2022-12-07T14:22:34;8.90;99.90
14471;DHT22;7321;50.802;4.336;2022-12-07T14:27:38;8.90;99.90
14471;DHT22;7321;50.802;4.336;2022-12-07T14:30:05;8.80;99.90
14471;DHT22;7321;50.802;4.336;2022-12-07T14:32:34;8.90;99.90
14471;DHT22;7321;50.802;4.336;2022-12-07T14:35:01;8.80;99.90
14471;DHT22;7321;50.802;4.336;2022-12-07T14:37:29;8.80;99.90
14471;DHT22;7321;50.802;4.336;2022-12-07T14:39:55;8.70;99.90
14471;DHT22;7321;50.802;4.336;2022-12-07T14:42:23;8.70;99.90
14471;DHT22;7321;50.802;4.336;2022-12-07T14:44:50;8.60;99.90
14471;DHT22;7321;50.802;4.336;2022-12-07T14:47:15;8.00;99.90
14471;DHT22;7321;50.802;4.336;2022-12-07T14:49:41;7.60;99.90
14471;DHT22;7321;50.802;4.336;2022-12-07T14:52:20;7.40;99.90
14471;DHT22;7321;50.802;4.336;2022-12-07T14:54:47;7.30;99.90
14471;DHT22;7321;50.802;4.336;2022-12-07T14:57:13;7.40;99.90
14471;DHT22;7321;50.802;4.336;2022-12-07T14:59:38;7.30;99.90
14471;DHT22;7321;50.802;4.336;2022-12-07T15:02:05;7.40;99.90
14471;DHT22;7321;50.802;4.336;2022-12-07T15:04:31;7.30;99.90
14471;DHT22;7321;50.802;4.336;2022-12-07T15:06:59;7.40;99.90
14471;DHT22;7321;50.802;4.336;2022-12-07T15:09:25;7.40;99.90
14471;DHT22;7321;50.802;4.336;2022-12-07T15:11:51;7.30;99.90
14471;DHT22;7321;50.802;4.336;2022-12-07T15:14:17;7.20;99.90
14471;DHT22;7321;50.802;4.336;2022-12-07T15:16:43;7.20;99.90
14471;DHT22;7321;50.802;4.336;2022-12-07T15:19:20;7.10;99.90
14471;DHT22;7321;50.802;4.336;2022-12-07T15:21:49;7.10;99.90
14471;DHT22;7321;50.802;4.336;2022-12-07T15:24:15;7.20;99.90
14471;DHT22;7321;50.802;4.336;2022-12-07T15:26:40;7.40;99.90
14471;DHT22;7321;50.802;4.336;2022-12-07T15:29:06;7.60;99.90
14471;DHT22;7321;50.802;4.336;2022-12-07T15:31:33;7.70;99.90
14471;DHT22;7321;50.802;4.336;2022-12-07T15:33:59;7.80;99.90
14471;DHT22;7321;50.802;4.336;2022-12-07T15:36:31;8.00;99.90
14471;DHT22;7321;50.802;4.336;2022-12-07T15:38:57;8.00;99.90
14471;DHT22;7321;50.802;4.336;2022-12-07T15:41:23;8.00;99.90
14471;DHT22;7321;50.802;4.336;2022-12-07T15:43:49;8.20;99.90
14471;DHT22;7321;50.802;4.336;2022-12-07T15:46:36;8.30;99.90
14471;DHT22;7321;50.802;4.336;2022-12-07T15:49:04;8.30;99.90
14471;DHT22;7321;50.802;4.336;2022-12-07T15:51:31;8.10;99.90
14471;DHT22;7321;50.802;4.336;2022-12-07T15:53:58;8.10;99.90
14471;DHT22;7321;50.802;4.336;2022-12-07T15:56:24;8.10;99.90
14471;DHT22;7321;50.802;4.336;2022-12-07T15:58:50;8.20;99.90
14471;DHT22;7321;50.802;4.336;2022-12-07T16:01:18;8.10;99.90
14471;DHT22;7321;50.802;4.336;2022-12-07T16:03:47;8.20;99.90
14471;DHT22;7321;50.802;4.336;2022-12-07T16:06:17;8.30;99.90
14471;DHT22;7321;50.802;4.336;2022-12-07T16:08:44;8.20;99.90
14471;DHT22;7321;50.802;4.336;2022-12-07T16:11:11;8.20;99.90
14471;DHT22;7321;50.802;4.336;2022-12-07T16:13:37;8.20;99.90
14471;DHT22;7321;50.802;4.336;2022-12-07T16:16:06;8.20;99.90
14471;DHT22;7321;50.802;4.336;2022-12-07T16:18:33;8.20;99.90
14471;DHT22;7321;50.802;4.336;2022-12-07T16:20:59;8.20;99.90
14471;DHT22;7321;50.802;4.336;2022-12-07T16:23:25;8.30;99.90
14471;DHT22;7321;50.802;4.336;2022-12-07T16:25:51;8.20;99.90
14471;DHT22;7321;50.802;4.336;2022-12-07T16:28:16;8.20;99.90
14471;DHT22;7321;50.802;4.336;2022-12-07T16:30:42;8.20;99.90
14471;DHT22;7321;50.802;4.336;2022-12-07T16:33:11;8.20;99.90
14471;DHT22;7321;50.802;4.336;2022-12-07T16:35:40;8.20;99.90
14471;DHT22;7321;50.802;4.336;2022-12-07T16:38:06;8.30;99.90
14471;DHT22;7321;50.802;4.336;2022-12-07T16:40:32;8.30;99.90
14471;DHT22;7321;50.802;4.336;2022-12-07T16:42:58;8.40;99.90
14471;DHT22;7321;50.802;4.336;2022-12-07T16:45:24;8.30;99.90
14471;DHT22;7321;50.802;4.336;2022-12-07T16:47:50;8.20;99.90
14471;DHT22;7321;50.802;4.336;2022-12-07T16:50:15;8.20;99.90
14471;DHT22;7321;50.802;4.336;2022-12-07T16:52:41;8.30;99.90
14471;DHT22;7321;50.802;4.336;2022-12-07T16:55:07;8.30;99.90
14471;DHT22;7321;50.802;4.336;2022-12-07T16:57:33;8.40;99.90
14471;DHT22;7321;50.802;4.336;2022-12-07T16:59:59;8.40;99.90
14471;DHT22;7321;50.802;4.336;2022-12-07T17:02:25;8.40;99.90
14471;DHT22;7321;50.802;4.336;2022-12-07T17:04:51;8.30;99.90
14471;DHT22;7321;50.802;4.336;2022-12-07T17:07:17;8.30;99.90
14471;DHT22;7321;50.802;4.336;2022-12-07T17:09:43;8.30;99.90
14471;DHT22;7321;50.802;4.336;2022-12-07T17:12:08;8.30;99.90
14471;DHT22;7321;50.802;4.336;2022-12-07T17:14:35;8.30;99.90
14471;DHT22;7321;50.802;4.336;2022-12-07T17:17:19;8.20;99.90
14471;DHT22;7321;50.802;4.336;2022-12-07T17:19:45;8.20;99.90
14471;DHT22;7321;50.802;4.336;2022-12-07T17:22:11;8.30;99.90
14471;DHT22;7321;50.802;4.336;2022-12-07T17:24:38;8.30;99.90
14471;DHT22;7321;50.802;4.336;2022-12-07T17:27:04;8.30;99.90
14471;DHT22;7321;50.802;4.336;2022-12-07T17:29:30;8.30;99.90
14471;DHT22;7321;50.802;4.336;2022-12-07T17:31:56;8.40;99.90
14471;DHT22;7321;50.802;4.336;2022-12-07T17:34:21;8.50;99.90
14471;DHT22;7321;50.802;4.336;2022-12-07T17:36:47;8.40;99.90
14471;DHT22;7321;50.802;4.336;2022-12-07T17:39:15;8.40;99.90
14471;DHT22;7321;50.802;4.336;2022-12-07T17:41:42;8.30;99.90
14471;DHT22;7321;50.802;4.336;2022-12-07T17:44:27;8.30;99.90
14471;DHT22;7321;50.802;4.336;2022-12-07T17:46:54;8.30;99.90
14471;DHT22;7321;50.802;4.336;2022-12-07T17:49:22;8.30;99.90
14471;DHT22;7321;50.802;4.336;2022-12-07T17:51:49;8.30;99.90
14471;DHT22;7321;50.802;4.336;2022-12-07T17:54:33;8.30;99.90
14471;DHT22;7321;50.802;4.336;2022-12-07T17:57:02;8.30;99.90
14471;DHT22;7321;50.802;4.336;2022-12-07T17:59:33;8.20;99.90
14471;DHT22;7321;50.802;4.336;2022-12-07T18:01:59;8.10;99.90
14471;DHT22;7321;50.802;4.336;2022-12-07T18:04:25;8.10;99.90
14471;DHT22;7321;50.802;4.336;2022-12-07T18:06:51;8.10;99.90
14471;DHT22;7321;50.802;4.336;2022-12-07T18:09:17;8.20;99.90
14471;DHT22;7321;50.802;4.336;2022-12-07T18:11:43;8.20;99.90
14471;DHT22;7321;50.802;4.336;2022-12-07T18:14:18;8.20;99.90